createdAt,value
2019-03-21T00:00:35.330Z,128.02
2019-03-21T00:05:39.190Z,121.02
2019-03-21T00:11:43.644Z,130.30
2019-03-21T00:16:47.673Z,120.82
2019-03-21T00:21:51.536Z,190.75
2019-03-21T00:26:55.483Z,127.33
2019-03-21T00:31:59.311Z,143.30
2019-03-21T00:37:03.446Z,163.47
2019-03-21T00:42:07.410Z,122.70
2019-03-21T00:47:11.852Z,111.37
2019-03-21T00:52:16.291Z,124.87
2019-03-21T00:57:20.319Z,115.30
2019-03-21T01:02:24.178Z,115.17
2019-03-21T01:07:28.167Z,136.20
2019-03-21T01:12:32.104Z,140.00
2019-03-21T01:17:36.017Z,129.23
2019-03-21T01:22:39.925Z,121.55
2019-03-21T01:27:44.090Z,134.55
2019-03-21T01:32:48.013Z,129.18
2019-03-21T01:37:51.948Z,129.40
2019-03-21T01:42:55.834Z,106.40
2019-03-21T01:47:59.905Z,120.08
2019-03-21T01:53:03.827Z,131.20
2019-03-21T01:58:08.130Z,118.67
2019-03-21T02:03:11.861Z,119.53
2019-03-21T02:08:15.898Z,98.70
2019-03-21T02:13:20.253Z,110.80
2019-03-21T02:18:24.482Z,105.70
2019-03-21T02:23:29.268Z,118.13
2019-03-21T02:28:32.992Z,120.70
2019-03-21T02:33:37.104Z,116.00
2019-03-21T02:38:41.201Z,120.28
2019-03-21T02:43:44.918Z,131.80
2019-03-21T02:48:48.762Z,122.67
2019-03-21T02:53:52.694Z,123.62
2019-03-21T02:58:57.082Z,120.13
2019-03-21T03:04:00.956Z,124.50
2019-03-21T03:09:08.112Z,129.45
2019-03-21T03:14:11.988Z,124.47
2019-03-21T03:19:15.799Z,126.97
2019-03-21T03:24:22.239Z,110.97
2019-03-21T03:29:26.363Z,118.77
2019-03-21T03:34:30.372Z,129.35
2019-03-21T03:39:36.832Z,122.20
2019-03-21T03:44:40.164Z,114.88
2019-03-21T03:49:44.271Z,117.67
2019-03-21T03:54:48.205Z,107.27
2019-03-21T03:59:52.474Z,116.47
2019-03-21T04:04:56.371Z,96.45
2019-03-21T04:10:00.561Z,110.57
2019-03-21T04:15:05.853Z,124.87
2019-03-21T04:20:12.461Z,117.53
2019-03-21T04:25:24.118Z,114.88
2019-03-21T04:30:27.939Z,102.67
2019-03-21T04:35:31.894Z,111.47
2019-03-21T04:40:35.882Z,98.92
2019-03-21T04:45:39.778Z,103.22
2019-03-21T04:50:43.813Z,91.05
2019-03-21T04:55:47.754Z,94.87
2019-03-21T05:00:51.524Z,101.60
2019-03-21T05:05:55.382Z,112.05
2019-03-21T05:10:59.327Z,100.82
2019-03-21T05:16:14.030Z,99.27
2019-03-21T05:21:10.026Z,103.25
2019-03-21T05:26:14.220Z,89.47
2019-03-21T05:31:26.243Z,79.87
2019-03-21T05:36:30.337Z,93.82
2019-03-21T05:41:34.234Z,96.00
2019-03-21T05:46:38.107Z,82.30
2019-03-21T05:51:42.201Z,84.60
2019-03-21T05:56:46.121Z,81.40
2019-03-21T06:01:50.323Z,87.90
2019-03-21T06:07:16.284Z,81.42
2019-03-21T06:12:20.245Z,75.30
2019-03-21T06:17:24.950Z,81.78
2019-03-21T06:23:13.124Z,74.40
2019-03-21T06:28:16.889Z,63.58
2019-03-21T06:33:20.860Z,59.65
2019-03-21T06:38:24.715Z,69.42
2019-03-21T06:43:28.858Z,62.90
2019-03-21T06:48:32.834Z,74.25
2019-03-21T06:53:36.703Z,66.53
2019-03-21T06:58:40.465Z,62.50
2019-03-21T07:03:44.390Z,62.00
2019-03-21T07:08:48.389Z,57.40
2019-03-21T07:13:52.355Z,55.43
2019-03-21T07:18:56.126Z,54.03
2019-03-21T07:24:00.071Z,62.15
2019-03-21T07:29:04.098Z,45.95
2019-03-21T07:34:10.101Z,49.98
2019-03-21T07:39:13.557Z,51.05
2019-03-21T07:44:17.274Z,49.73
2019-03-21T07:49:21.066Z,57.15
2019-03-21T07:54:24.973Z,52.20
2019-03-21T07:59:28.758Z,49.27
2019-03-21T08:04:32.817Z,52.50
2019-03-21T08:09:36.821Z,54.83
2019-03-21T08:14:41.381Z,45.23
2019-03-21T08:19:45.447Z,41.10
2019-03-21T08:24:49.459Z,45.85
2019-03-21T08:29:53.647Z,44.88
2019-03-21T08:34:57.522Z,39.50
2019-03-21T08:40:01.438Z,35.75
2019-03-21T08:45:06.716Z,38.63
2019-03-21T08:50:10.990Z,44.63
2019-03-21T08:55:14.875Z,37.35
2019-03-21T09:00:18.935Z,41.30
2019-03-21T09:05:22.818Z,46.88
2019-03-21T09:10:26.667Z,49.60
2019-03-21T09:15:30.572Z,49.05
2019-03-21T09:20:34.330Z,40.60
2019-03-21T09:25:38.138Z,34.43
2019-03-21T09:30:42.349Z,38.78
2019-03-21T09:35:46.274Z,36.63
2019-03-21T09:40:50.017Z,43.15
2019-03-21T09:45:53.754Z,23.38
2019-03-21T09:50:57.537Z,23.45
2019-03-21T09:56:01.498Z,22.45
2019-03-21T10:01:05.408Z,30.77
2019-03-21T10:06:09.343Z,39.03
2019-03-21T10:11:13.372Z,23.12
2019-03-21T10:16:17.283Z,25.88
2019-03-21T10:21:21.054Z,26.95
2019-03-21T10:26:25.138Z,27.17
2019-03-21T10:31:29.077Z,31.65
2019-03-21T10:36:33.045Z,38.42
2019-03-21T10:41:37.023Z,28.77
2019-03-21T10:46:41.052Z,26.27
2019-03-21T10:51:54.435Z,34.60
2019-03-21T10:56:50.642Z,36.77
2019-03-21T11:01:54.533Z,36.88
2019-03-21T11:07:03.199Z,38.28
2019-03-21T11:12:07.239Z,24.98
2019-03-21T11:17:11.123Z,24.75
2019-03-21T11:22:14.855Z,27.37
2019-03-21T11:27:18.598Z,29.50
2019-03-21T11:32:22.665Z,32.23
2019-03-21T11:37:26.570Z,21.13
2019-03-21T11:42:30.496Z,28.92
2019-03-21T11:47:41.607Z,23.35
2019-03-21T11:52:41.223Z,23.20
2019-03-21T11:57:45.216Z,24.23
2019-03-21T12:02:49.638Z,25.20
2019-03-21T12:07:53.522Z,24.12
2019-03-21T12:12:57.807Z,21.87
2019-03-21T12:18:01.678Z,27.05
2019-03-21T12:23:06.010Z,27.37
2019-03-21T12:28:10.234Z,24.05
2019-03-21T12:33:14.133Z,24.77
2019-03-21T12:38:17.997Z,26.17
2019-03-21T12:43:22.042Z,22.93
2019-03-21T12:48:25.956Z,19.45
2019-03-21T12:53:29.777Z,23.07
2019-03-21T12:58:33.805Z,22.45
2019-03-21T13:03:37.764Z,23.57
2019-03-21T13:08:41.761Z,23.45
2019-03-21T13:13:45.815Z,21.33
2019-03-21T13:18:49.728Z,22.10
2019-03-21T13:23:53.661Z,25.77
2019-03-21T13:28:57.992Z,24.05
2019-03-21T13:34:01.910Z,23.50
2019-03-21T13:39:07.886Z,22.87
2019-03-21T13:44:11.728Z,18.50
2019-03-21T13:49:15.585Z,28.87
2019-03-21T13:54:19.476Z,21.55
2019-03-21T13:59:23.395Z,17.77
2019-03-21T14:04:27.361Z,23.07
2019-03-21T14:09:31.245Z,21.12
2019-03-21T14:14:35.059Z,21.05
2019-03-21T14:19:39.024Z,21.62
2019-03-21T14:24:43.148Z,29.67
2019-03-21T14:29:47.057Z,20.32
2019-03-21T14:34:50.960Z,20.15
2019-03-21T14:39:55.117Z,26.57
2019-03-21T14:44:59.051Z,20.65
2019-03-21T14:50:04.083Z,24.02
2019-03-21T14:55:09.611Z,20.72
2019-03-21T15:00:18.275Z,19.83
2019-03-21T15:05:22.200Z,18.02
2019-03-21T15:10:26.070Z,23.38
2019-03-21T15:15:32.181Z,19.30
2019-03-21T15:20:35.964Z,23.30
2019-03-21T15:25:40.121Z,22.10
2019-03-21T15:30:44.217Z,22.98
2019-03-21T15:35:48.200Z,26.25
2019-03-21T15:40:52.452Z,23.80
2019-03-21T15:45:56.769Z,26.05
2019-03-21T15:51:04.846Z,21.07
2019-03-21T15:56:06.379Z,20.92
2019-03-21T16:01:10.344Z,22.45
2019-03-21T16:06:14.479Z,29.30
2019-03-21T16:11:18.275Z,27.45
2019-03-21T16:16:22.343Z,25.75
2019-03-21T16:21:26.399Z,24.75
2019-03-21T16:26:30.272Z,30.92
2019-03-21T16:31:34.021Z,29.05
2019-03-21T16:36:37.940Z,27.60
2019-03-21T16:41:41.819Z,28.07
2019-03-21T16:46:45.795Z,24.07
2019-03-21T16:51:49.702Z,28.25
2019-03-21T16:56:53.655Z,29.40
2019-03-21T17:01:57.586Z,23.90
2019-03-21T17:07:01.597Z,30.65
2019-03-21T17:12:05.427Z,26.77
2019-03-21T17:17:09.423Z,28.70
2019-03-21T17:22:13.621Z,32.03
2019-03-21T17:27:17.608Z,27.55
2019-03-21T17:32:21.587Z,25.82
2019-03-21T17:37:25.523Z,26.57
2019-03-21T17:42:29.520Z,24.47
2019-03-21T17:47:33.881Z,28.95
2019-03-21T17:52:37.589Z,24.98
2019-03-21T17:57:41.416Z,31.42
2019-03-21T18:02:45.301Z,32.17
2019-03-21T18:07:49.344Z,31.90
2019-03-21T18:12:53.231Z,32.05
2019-03-21T18:17:57.260Z,35.80
2019-03-21T18:23:01.617Z,32.10
2019-03-21T18:28:08.432Z,32.33
2019-03-21T18:33:11.446Z,30.03
2019-03-21T18:38:15.399Z,30.00
2019-03-21T18:43:19.393Z,37.38
2019-03-21T18:48:23.384Z,35.13
2019-03-21T18:53:27.487Z,33.33
2019-03-21T18:58:31.396Z,30.35
2019-03-21T19:03:35.345Z,34.08
2019-03-21T19:08:39.125Z,35.60
2019-03-21T19:13:43.299Z,45.58
2019-03-21T19:18:47.193Z,36.65
2019-03-21T19:23:51.186Z,39.83
2019-03-21T19:28:54.986Z,42.73
2019-03-21T19:33:59.882Z,41.13
2019-03-21T19:39:06.539Z,41.13
2019-03-21T19:44:10.817Z,40.88
2019-03-21T19:49:14.858Z,39.90
2019-03-21T19:54:18.958Z,47.60
2019-03-21T19:59:22.861Z,46.23
2019-03-21T20:04:26.853Z,44.48
2019-03-21T20:09:30.804Z,46.05
2019-03-21T20:14:34.625Z,52.88
2019-03-21T20:19:38.475Z,46.80
2019-03-21T20:24:42.362Z,56.55
2019-03-21T20:29:46.624Z,55.58
2019-03-21T20:34:50.609Z,51.70
2019-03-21T20:39:54.726Z,59.15
2019-03-21T20:44:58.680Z,55.20
2019-03-21T20:50:02.994Z,56.23
2019-03-21T20:55:08.632Z,66.60
2019-03-21T21:00:16.492Z,60.70
2019-03-21T21:05:22.939Z,60.48
2019-03-21T21:10:26.903Z,62.67
2019-03-21T21:15:30.956Z,60.55
2019-03-21T21:20:34.944Z,64.47
2019-03-21T21:25:38.798Z,65.45
2019-03-21T21:30:42.858Z,62.65
2019-03-21T21:35:46.853Z,58.28
2019-03-21T21:40:50.817Z,64.07
2019-03-21T21:45:54.939Z,66.28
2019-03-21T21:50:59.111Z,65.95
2019-03-21T21:56:03.917Z,72.08
2019-03-21T22:01:07.852Z,75.52
2019-03-21T22:06:11.958Z,71.67
2019-03-21T22:11:15.938Z,76.97
2019-03-21T22:16:19.832Z,85.42
2019-03-21T22:21:23.735Z,80.67
2019-03-21T22:26:29.848Z,77.12
2019-03-21T22:31:33.660Z,68.20
2019-03-21T22:36:48.630Z,65.72
2019-03-21T22:41:43.278Z,68.17
2019-03-21T22:46:47.539Z,69.82
2019-03-21T22:51:51.292Z,75.65
2019-03-21T22:56:55.011Z,78.90
2019-03-21T23:02:02.381Z,72.17
2019-03-21T23:07:06.377Z,69.25
2019-03-21T23:12:10.487Z,70.50
2019-03-21T23:17:14.235Z,68.85
2019-03-21T23:22:18.008Z,83.80
2019-03-21T23:27:21.966Z,73.78
2019-03-21T23:32:26.228Z,77.30
2019-03-21T23:37:30.036Z,76.67
2019-03-21T23:42:33.783Z,90.72
2019-03-21T23:47:37.790Z,89.77
2019-03-21T23:52:41.902Z,80.05
2019-03-21T23:57:46.107Z,87.62
